sensor_id;sensor_type;location;lat;lon;timestamp;P1;durP1;ratioP1;P2;durP2;ratioP2
62990;SDS011;49084;48.204;16.202;2023-03-01T00:01:09;32.75;;;17.08;;
62990;SDS011;49084;48.204;16.202;2023-03-01T00:03:37;35.38;;;16.50;;
62990;SDS011;49084;48.204;16.202;2023-03-01T00:06:03;33.90;;;16.17;;
62990;SDS011;49084;48.204;16.202;2023-03-01T00:08:30;31.88;;;15.30;;
62990;SDS011;49084;48.204;16.202;2023-03-01T00:13:31;29.70;;;16.50;;
62990;SDS011;49084;48.204;16.202;2023-03-01T00:15:57;36.22;;;16.42;;
62990;SDS011;49084;48.204;16.202;2023-03-01T00:18:23;29.05;;;16.15;;
62990;SDS011;49084;48.204;16.202;2023-03-01T00:20:50;33.03;;;15.75;;
62990;SDS011;49084;48.204;16.202;2023-03-01T00:23:17;32.63;;;14.98;;
62990;SDS011;49084;48.204;16.202;2023-03-01T00:25:42;33.55;;;17.08;;
62990;SDS011;49084;48.204;16.202;2023-03-01T00:28:08;32.05;;;15.98;;
62990;SDS011;49084;48.204;16.202;2023-03-01T00:30:34;35.25;;;16.23;;
62990;SDS011;49084;48.204;16.202;2023-03-01T00:33:00;35.53;;;16.60;;
62990;SDS011;49084;48.204;16.202;2023-03-01T00:35:25;31.13;;;15.45;;
62990;SDS011;49084;48.204;16.202;2023-03-01T00:37:51;34.53;;;16.85;;
62990;SDS011;49084;48.204;16.202;2023-03-01T00:40:26;32.53;;;16.20;;
62990;SDS011;49084;48.204;16.202;2023-03-01T00:42:53;31.85;;;16.90;;
62990;SDS011;49084;48.204;16.202;2023-03-01T00:45:18;33.58;;;16.15;;
62990;SDS011;49084;48.204;16.202;2023-03-01T00:47:44;34.67;;;16.40;;
62990;SDS011;49084;48.204;16.202;2023-03-01T00:50:10;37.28;;;15.93;;
62990;SDS011;49084;48.204;16.202;2023-03-01T00:52:36;33.65;;;15.57;;
62990;SDS011;49084;48.204;16.202;2023-03-01T00:55:02;39.28;;;16.42;;
62990;SDS011;49084;48.204;16.202;2023-03-01T00:57:29;30.40;;;15.20;;
62990;SDS011;49084;48.204;16.202;2023-03-01T00:59:55;33.88;;;17.85;;
62990;SDS011;49084;48.204;16.202;2023-03-01T01:02:21;29.85;;;15.20;;
62990;SDS011;49084;48.204;16.202;2023-03-01T01:04:47;33.97;;;16.13;;
62990;SDS011;49084;48.204;16.202;2023-03-01T01:07:13;36.90;;;16.92;;
62990;SDS011;49084;48.204;16.202;2023-03-01T01:09:39;35.35;;;16.50;;
62990;SDS011;49084;48.204;16.202;2023-03-01T01:12:04;32.10;;;15.63;;
62990;SDS011;49084;48.204;16.202;2023-03-01T01:14:30;40.08;;;17.02;;
62990;SDS011;49084;48.204;16.202;2023-03-01T01:16:56;33.78;;;15.40;;
62990;SDS011;49084;48.204;16.202;2023-03-01T01:19:22;37.40;;;16.90;;
62990;SDS011;49084;48.204;16.202;2023-03-01T01:21:48;32.85;;;15.93;;
62990;SDS011;49084;48.204;16.202;2023-03-01T01:24:14;40.63;;;16.67;;
62990;SDS011;49084;48.204;16.202;2023-03-01T01:26:41;34.10;;;16.33;;
62990;SDS011;49084;48.204;16.202;2023-03-01T01:29:07;38.25;;;16.55;;
62990;SDS011;49084;48.204;16.202;2023-03-01T01:31:34;33.97;;;15.65;;
62990;SDS011;49084;48.204;16.202;2023-03-01T01:34:01;31.35;;;15.95;;
62990;SDS011;49084;48.204;16.202;2023-03-01T01:36:30;31.90;;;16.48;;
62990;SDS011;49084;48.204;16.202;2023-03-01T01:38:56;33.72;;;16.25;;
62990;SDS011;49084;48.204;16.202;2023-03-01T01:41:22;31.73;;;16.65;;
62990;SDS011;49084;48.204;16.202;2023-03-01T01:44:08;35.38;;;16.38;;
62990;SDS011;49084;48.204;16.202;2023-03-01T01:46:44;31.50;;;15.32;;
62990;SDS011;49084;48.204;16.202;2023-03-01T01:51:48;31.48;;;15.90;;
62990;SDS011;49084;48.204;16.202;2023-03-01T01:54:20;35.00;;;16.80;;
62990;SDS011;49084;48.204;16.202;2023-03-01T01:57:01;29.65;;;16.17;;
62990;SDS011;49084;48.204;16.202;2023-03-01T01:59:31;35.00;;;17.00;;
62990;SDS011;49084;48.204;16.202;2023-03-01T02:01:59;32.15;;;15.60;;
62990;SDS011;49084;48.204;16.202;2023-03-01T02:04:28;32.92;;;15.75;;
62990;SDS011;49084;48.204;16.202;2023-03-01T02:07:00;34.45;;;15.95;;
62990;SDS011;49084;48.204;16.202;2023-03-01T02:09:30;31.67;;;16.00;;
62990;SDS011;49084;48.204;16.202;2023-03-01T02:11:57;28.85;;;14.50;;
62990;SDS011;49084;48.204;16.202;2023-03-01T02:14:23;27.88;;;15.63;;
62990;SDS011;49084;48.204;16.202;2023-03-01T02:16:49;29.10;;;15.85;;
62990;SDS011;49084;48.204;16.202;2023-03-01T02:22:22;31.75;;;15.98;;
62990;SDS011;49084;48.204;16.202;2023-03-01T02:30:44;28.00;;;14.53;;
62990;SDS011;49084;48.204;16.202;2023-03-01T02:33:31;36.58;;;16.05;;
62990;SDS011;49084;48.204;16.202;2023-03-01T02:36:01;27.90;;;14.80;;
62990;SDS011;49084;48.204;16.202;2023-03-01T02:38:40;31.08;;;15.05;;
62990;SDS011;49084;48.204;16.202;2023-03-01T02:41:07;29.23;;;14.18;;
62990;SDS011;49084;48.204;16.202;2023-03-01T02:43:35;30.17;;;14.98;;
62990;SDS011;49084;48.204;16.202;2023-03-01T02:46:06;26.95;;;14.73;;
62990;SDS011;49084;48.204;16.202;2023-03-01T02:48:40;27.55;;;15.23;;
62990;SDS011;49084;48.204;16.202;2023-03-01T02:56:23;28.20;;;14.60;;
62990;SDS011;49084;48.204;16.202;2023-03-01T02:58:50;28.60;;;14.80;;
62990;SDS011;49084;48.204;16.202;2023-03-01T03:01:17;31.30;;;15.57;;
62990;SDS011;49084;48.204;16.202;2023-03-01T03:03:44;35.83;;;16.45;;
62990;SDS011;49084;48.204;16.202;2023-03-01T03:06:10;27.65;;;14.55;;
62990;SDS011;49084;48.204;16.202;2023-03-01T03:08:35;27.83;;;14.48;;
62990;SDS011;49084;48.204;16.202;2023-03-01T03:11:01;26.58;;;14.50;;
62990;SDS011;49084;48.204;16.202;2023-03-01T03:13:27;36.63;;;16.70;;
62990;SDS011;49084;48.204;16.202;2023-03-01T03:15:54;36.53;;;15.38;;
62990;SDS011;49084;48.204;16.202;2023-03-01T03:18:21;35.80;;;14.38;;
62990;SDS011;49084;48.204;16.202;2023-03-01T03:20:47;32.88;;;15.98;;
62990;SDS011;49084;48.204;16.202;2023-03-01T03:23:17;32.88;;;14.02;;
62990;SDS011;49084;48.204;16.202;2023-03-01T03:25:50;26.70;;;14.40;;
62990;SDS011;49084;48.204;16.202;2023-03-01T03:28:16;25.30;;;13.55;;
62990;SDS011;49084;48.204;16.202;2023-03-01T03:30:42;27.30;;;14.60;;
62990;SDS011;49084;48.204;16.202;2023-03-01T03:33:09;32.03;;;14.68;;
62990;SDS011;49084;48.204;16.202;2023-03-01T03:35:46;32.58;;;15.30;;
62990;SDS011;49084;48.204;16.202;2023-03-01T03:38:14;31.85;;;15.40;;
62990;SDS011;49084;48.204;16.202;2023-03-01T03:41:03;29.50;;;14.63;;
62990;SDS011;49084;48.204;16.202;2023-03-01T03:43:32;28.98;;;14.88;;
62990;SDS011;49084;48.204;16.202;2023-03-01T03:46:00;29.20;;;14.65;;
62990;SDS011;49084;48.204;16.202;2023-03-01T03:48:30;30.13;;;14.48;;
62990;SDS011;49084;48.204;16.202;2023-03-01T03:51:00;30.38;;;15.88;;
62990;SDS011;49084;48.204;16.202;2023-03-01T03:53:27;29.52;;;13.73;;
62990;SDS011;49084;48.204;16.202;2023-03-01T03:55:54;30.80;;;15.18;;
62990;SDS011;49084;48.204;16.202;2023-03-01T03:58:20;28.33;;;13.90;;
62990;SDS011;49084;48.204;16.202;2023-03-01T04:00:48;29.92;;;14.65;;
62990;SDS011;49084;48.204;16.202;2023-03-01T04:05:43;24.52;;;13.00;;
62990;SDS011;49084;48.204;16.202;2023-03-01T04:08:10;29.45;;;13.77;;
62990;SDS011;49084;48.204;16.202;2023-03-01T04:10:37;30.15;;;13.93;;
62990;SDS011;49084;48.204;16.202;2023-03-01T04:13:04;30.60;;;13.90;;
62990;SDS011;49084;48.204;16.202;2023-03-01T04:15:31;27.73;;;13.52;;
62990;SDS011;49084;48.204;16.202;2023-03-01T04:17:58;27.50;;;14.63;;
62990;SDS011;49084;48.204;16.202;2023-03-01T04:20:26;31.30;;;14.98;;
62990;SDS011;49084;48.204;16.202;2023-03-01T04:25:23;26.88;;;14.32;;
62990;SDS011;49084;48.204;16.202;2023-03-01T04:27:50;30.52;;;14.55;;
62990;SDS011;49084;48.204;16.202;2023-03-01T04:30:15;28.85;;;14.02;;
62990;SDS011;49084;48.204;16.202;2023-03-01T04:32:41;32.90;;;14.65;;
62990;SDS011;49084;48.204;16.202;2023-03-01T04:35:07;27.38;;;14.70;;
62990;SDS011;49084;48.204;16.202;2023-03-01T04:37:33;30.67;;;13.80;;
62990;SDS011;49084;48.204;16.202;2023-03-01T04:40:00;30.33;;;13.65;;
62990;SDS011;49084;48.204;16.202;2023-03-01T04:42:40;38.70;;;15.15;;
62990;SDS011;49084;48.204;16.202;2023-03-01T04:45:07;26.48;;;14.07;;
62990;SDS011;49084;48.204;16.202;2023-03-01T04:47:41;28.25;;;13.75;;
62990;SDS011;49084;48.204;16.202;2023-03-01T04:50:09;29.90;;;15.65;;
62990;SDS011;49084;48.204;16.202;2023-03-01T04:52:37;31.50;;;15.27;;
62990;SDS011;49084;48.204;16.202;2023-03-01T04:55:03;28.15;;;14.77;;
62990;SDS011;49084;48.204;16.202;2023-03-01T04:57:30;34.97;;;16.33;;
62990;SDS011;49084;48.204;16.202;2023-03-01T04:59:56;33.65;;;16.25;;
62990;SDS011;49084;48.204;16.202;2023-03-01T05:02:21;33.42;;;15.57;;
62990;SDS011;49084;48.204;16.202;2023-03-01T05:04:47;31.63;;;14.60;;
62990;SDS011;49084;48.204;16.202;2023-03-01T05:07:12;32.83;;;15.25;;
62990;SDS011;49084;48.204;16.202;2023-03-01T05:09:44;32.38;;;14.93;;
62990;SDS011;49084;48.204;16.202;2023-03-01T05:12:10;30.85;;;14.95;;
62990;SDS011;49084;48.204;16.202;2023-03-01T05:14:36;35.15;;;15.35;;
62990;SDS011;49084;48.204;16.202;2023-03-01T05:17:03;32.03;;;15.68;;
62990;SDS011;49084;48.204;16.202;2023-03-01T05:19:29;27.52;;;15.18;;
62990;SDS011;49084;48.204;16.202;2023-03-01T05:21:56;31.20;;;15.02;;
62990;SDS011;49084;48.204;16.202;2023-03-01T05:24:34;28.65;;;14.27;;
62990;SDS011;49084;48.204;16.202;2023-03-01T05:27:01;30.95;;;14.88;;
62990;SDS011;49084;48.204;16.202;2023-03-01T05:29:28;34.97;;;14.57;;
62990;SDS011;49084;48.204;16.202;2023-03-01T05:31:58;31.30;;;14.27;;
62990;SDS011;49084;48.204;16.202;2023-03-01T05:34:26;28.42;;;14.90;;
62990;SDS011;49084;48.204;16.202;2023-03-01T05:36:53;35.83;;;16.00;;
62990;SDS011;49084;48.204;16.202;2023-03-01T05:39:23;30.15;;;15.02;;
62990;SDS011;49084;48.204;16.202;2023-03-01T05:41:57;37.17;;;15.48;;
62990;SDS011;49084;48.204;16.202;2023-03-01T05:44:25;27.83;;;13.73;;
62990;SDS011;49084;48.204;16.202;2023-03-01T05:46:51;31.73;;;15.70;;
62990;SDS011;49084;48.204;16.202;2023-03-01T05:49:17;30.25;;;15.05;;
62990;SDS011;49084;48.204;16.202;2023-03-01T05:51:48;29.48;;;14.40;;
62990;SDS011;49084;48.204;16.202;2023-03-01T05:54:16;28.33;;;15.23;;
62990;SDS011;49084;48.204;16.202;2023-03-01T05:56:43;33.63;;;15.10;;
62990;SDS011;49084;48.204;16.202;2023-03-01T05:59:08;31.20;;;15.25;;
62990;SDS011;49084;48.204;16.202;2023-03-01T06:01:35;30.52;;;15.95;;
62990;SDS011;49084;48.204;16.202;2023-03-01T06:04:01;33.22;;;14.82;;
62990;SDS011;49084;48.204;16.202;2023-03-01T06:06:28;30.65;;;15.27;;
62990;SDS011;49084;48.204;16.202;2023-03-01T06:08:54;39.55;;;16.17;;
62990;SDS011;49084;48.204;16.202;2023-03-01T06:11:20;35.33;;;16.20;;
62990;SDS011;49084;48.204;16.202;2023-03-01T06:13:46;32.22;;;15.15;;
62990;SDS011;49084;48.204;16.202;2023-03-01T06:16:13;38.38;;;17.13;;
62990;SDS011;49084;48.204;16.202;2023-03-01T06:18:39;40.22;;;17.70;;
62990;SDS011;49084;48.204;16.202;2023-03-01T06:21:05;33.80;;;15.73;;
62990;SDS011;49084;48.204;16.202;2023-03-01T06:23:32;31.95;;;15.05;;
62990;SDS011;49084;48.204;16.202;2023-03-01T06:25:58;33.17;;;16.45;;
62990;SDS011;49084;48.204;16.202;2023-03-01T06:28:24;32.17;;;15.52;;
62990;SDS011;49084;48.204;16.202;2023-03-01T06:30:50;29.85;;;15.43;;
62990;SDS011;49084;48.204;16.202;2023-03-01T06:33:17;36.92;;;16.75;;
62990;SDS011;49084;48.204;16.202;2023-03-01T06:35:45;30.20;;;16.13;;
62990;SDS011;49084;48.204;16.202;2023-03-01T06:38:11;33.10;;;16.40;;
62990;SDS011;49084;48.204;16.202;2023-03-01T06:40:40;31.25;;;15.38;;
62990;SDS011;49084;48.204;16.202;2023-03-01T06:43:06;32.85;;;16.45;;
62990;SDS011;49084;48.204;16.202;2023-03-01T06:45:32;33.72;;;17.25;;
62990;SDS011;49084;48.204;16.202;2023-03-01T06:48:02;39.70;;;19.15;;
62990;SDS011;49084;48.204;16.202;2023-03-01T06:50:32;37.03;;;18.90;;
62990;SDS011;49084;48.204;16.202;2023-03-01T06:52:58;33.38;;;17.98;;
62990;SDS011;49084;48.204;16.202;2023-03-01T06:55:24;33.75;;;18.80;;
62990;SDS011;49084;48.204;16.202;2023-03-01T06:57:54;39.72;;;18.63;;
62990;SDS011;49084;48.204;16.202;2023-03-01T07:00:21;38.80;;;20.13;;
62990;SDS011;49084;48.204;16.202;2023-03-01T07:02:47;35.70;;;18.83;;
62990;SDS011;49084;48.204;16.202;2023-03-01T07:05:13;38.03;;;18.75;;
62990;SDS011;49084;48.204;16.202;2023-03-01T07:07:38;43.88;;;20.27;;
62990;SDS011;49084;48.204;16.202;2023-03-01T07:10:04;44.58;;;20.65;;
62990;SDS011;49084;48.204;16.202;2023-03-01T07:12:31;48.80;;;20.45;;
62990;SDS011;49084;48.204;16.202;2023-03-01T07:14:56;37.95;;;20.02;;
62990;SDS011;49084;48.204;16.202;2023-03-01T07:17:22;44.60;;;20.27;;
62990;SDS011;49084;48.204;16.202;2023-03-01T07:19:47;37.70;;;19.52;;
62990;SDS011;49084;48.204;16.202;2023-03-01T07:22:13;45.80;;;20.65;;
62990;SDS011;49084;48.204;16.202;2023-03-01T07:24:40;44.17;;;20.85;;
62990;SDS011;49084;48.204;16.202;2023-03-01T07:27:06;42.95;;;21.30;;
62990;SDS011;49084;48.204;16.202;2023-03-01T07:29:32;37.80;;;20.95;;
62990;SDS011;49084;48.204;16.202;2023-03-01T07:31:57;35.22;;;20.27;;
62990;SDS011;49084;48.204;16.202;2023-03-01T07:34:23;40.47;;;20.77;;
62990;SDS011;49084;48.204;16.202;2023-03-01T07:36:49;42.22;;;21.98;;
62990;SDS011;49084;48.204;16.202;2023-03-01T07:39:15;40.92;;;21.73;;
62990;SDS011;49084;48.204;16.202;2023-03-01T07:41:40;39.67;;;21.20;;
62990;SDS011;49084;48.204;16.202;2023-03-01T07:44:06;51.45;;;23.08;;
62990;SDS011;49084;48.204;16.202;2023-03-01T07:46:32;41.85;;;20.60;;
62990;SDS011;49084;48.204;16.202;2023-03-01T07:48:57;45.65;;;21.25;;
62990;SDS011;49084;48.204;16.202;2023-03-01T07:51:23;41.40;;;21.20;;
62990;SDS011;49084;48.204;16.202;2023-03-01T07:53:49;41.80;;;21.58;;
62990;SDS011;49084;48.204;16.202;2023-03-01T07:56:15;43.17;;;21.58;;
62990;SDS011;49084;48.204;16.202;2023-03-01T07:58:43;44.28;;;21.40;;
62990;SDS011;49084;48.204;16.202;2023-03-01T08:01:13;52.22;;;23.02;;
62990;SDS011;49084;48.204;16.202;2023-03-01T08:03:44;43.90;;;23.30;;
62990;SDS011;49084;48.204;16.202;2023-03-01T08:06:11;45.22;;;22.40;;
62990;SDS011;49084;48.204;16.202;2023-03-01T08:08:38;40.40;;;21.42;;
62990;SDS011;49084;48.204;16.202;2023-03-01T08:11:05;46.88;;;21.33;;
62990;SDS011;49084;48.204;16.202;2023-03-01T08:13:32;44.03;;;22.45;;
62990;SDS011;49084;48.204;16.202;2023-03-01T08:16:05;41.42;;;21.77;;
62990;SDS011;49084;48.204;16.202;2023-03-01T08:18:32;46.50;;;23.38;;
62990;SDS011;49084;48.204;16.202;2023-03-01T08:21:05;42.88;;;22.30;;
62990;SDS011;49084;48.204;16.202;2023-03-01T08:23:32;44.60;;;23.70;;
62990;SDS011;49084;48.204;16.202;2023-03-01T08:26:08;43.90;;;21.88;;
62990;SDS011;49084;48.204;16.202;2023-03-01T08:28:43;42.38;;;22.40;;
62990;SDS011;49084;48.204;16.202;2023-03-01T08:31:20;39.38;;;22.88;;
62990;SDS011;49084;48.204;16.202;2023-03-01T08:36:20;46.88;;;21.98;;
62990;SDS011;49084;48.204;16.202;2023-03-01T08:38:51;44.28;;;22.60;;
62990;SDS011;49084;48.204;16.202;2023-03-01T08:41:17;42.22;;;22.80;;
62990;SDS011;49084;48.204;16.202;2023-03-01T08:43:43;42.28;;;23.60;;
62990;SDS011;49084;48.204;16.202;2023-03-01T08:46:09;42.13;;;23.80;;
62990;SDS011;49084;48.204;16.202;2023-03-01T08:48:36;45.22;;;22.05;;
62990;SDS011;49084;48.204;16.202;2023-03-01T08:51:11;45.25;;;23.38;;
62990;SDS011;49084;48.204;16.202;2023-03-01T08:53:41;41.45;;;22.35;;
62990;SDS011;49084;48.204;16.202;2023-03-01T08:56:07;39.47;;;22.52;;
62990;SDS011;49084;48.204;16.202;2023-03-01T08:58:34;41.50;;;22.80;;
62990;SDS011;49084;48.204;16.202;2023-03-01T09:01:00;41.65;;;21.77;;
62990;SDS011;49084;48.204;16.202;2023-03-01T09:03:26;39.97;;;23.75;;
62990;SDS011;49084;48.204;16.202;2023-03-01T09:05:52;41.97;;;23.30;;
62990;SDS011;49084;48.204;16.202;2023-03-01T09:08:24;43.33;;;22.15;;
62990;SDS011;49084;48.204;16.202;2023-03-01T09:10:50;43.88;;;23.95;;
62990;SDS011;49084;48.204;16.202;2023-03-01T09:13:16;38.65;;;21.92;;
62990;SDS011;49084;48.204;16.202;2023-03-01T09:15:41;41.03;;;21.40;;
62990;SDS011;49084;48.204;16.202;2023-03-01T09:18:07;39.47;;;20.42;;
62990;SDS011;49084;48.204;16.202;2023-03-01T09:20:32;31.95;;;20.10;;
62990;SDS011;49084;48.204;16.202;2023-03-01T09:22:58;36.28;;;19.05;;
62990;SDS011;49084;48.204;16.202;2023-03-01T09:25:24;37.78;;;20.88;;
62990;SDS011;49084;48.204;16.202;2023-03-01T09:27:53;31.77;;;19.90;;
62990;SDS011;49084;48.204;16.202;2023-03-01T09:30:20;36.58;;;19.27;;
62990;SDS011;49084;48.204;16.202;2023-03-01T09:32:45;32.67;;;18.40;;
62990;SDS011;49084;48.204;16.202;2023-03-01T09:35:11;31.30;;;18.63;;
62990;SDS011;49084;48.204;16.202;2023-03-01T09:37:37;32.95;;;19.27;;
62990;SDS011;49084;48.204;16.202;2023-03-01T09:40:06;30.63;;;18.38;;
62990;SDS011;49084;48.204;16.202;2023-03-01T09:45:45;26.13;;;16.67;;
62990;SDS011;49084;48.204;16.202;2023-03-01T09:48:16;26.75;;;18.02;;
62990;SDS011;49084;48.204;16.202;2023-03-01T09:50:43;34.58;;;18.50;;
62990;SDS011;49084;48.204;16.202;2023-03-01T09:53:16;32.03;;;17.00;;
62990;SDS011;49084;48.204;16.202;2023-03-01T09:56:04;27.92;;;15.93;;
62990;SDS011;49084;48.204;16.202;2023-03-01T09:58:59;33.30;;;17.30;;
62990;SDS011;49084;48.204;16.202;2023-03-01T10:04:44;24.55;;;14.70;;
62990;SDS011;49084;48.204;16.202;2023-03-01T10:09:48;25.60;;;14.75;;
62990;SDS011;49084;48.204;16.202;2023-03-01T10:12:18;24.98;;;14.68;;
62990;SDS011;49084;48.204;16.202;2023-03-01T10:19:57;28.27;;;15.70;;
62990;SDS011;49084;48.204;16.202;2023-03-01T10:22:39;28.05;;;15.70;;
62990;SDS011;49084;48.204;16.202;2023-03-01T10:25:04;26.58;;;15.80;;
62990;SDS011;49084;48.204;16.202;2023-03-01T10:32:45;32.25;;;17.40;;
62990;SDS011;49084;48.204;16.202;2023-03-01T10:40:32;29.80;;;16.02;;
62990;SDS011;49084;48.204;16.202;2023-03-01T10:42:59;28.60;;;16.63;;
62990;SDS011;49084;48.204;16.202;2023-03-01T10:56:05;28.33;;;16.25;;
62990;SDS011;49084;48.204;16.202;2023-03-01T10:58:35;26.80;;;16.05;;
62990;SDS011;49084;48.204;16.202;2023-03-01T11:06:36;24.15;;;14.18;;
62990;SDS011;49084;48.204;16.202;2023-03-01T11:12:05;24.60;;;15.93;;
62990;SDS011;49084;48.204;16.202;2023-03-01T11:14:45;24.38;;;15.52;;
62990;SDS011;49084;48.204;16.202;2023-03-01T11:17:29;27.02;;;14.98;;
62990;SDS011;49084;48.204;16.202;2023-03-01T11:22:38;22.20;;;13.98;;
62990;SDS011;49084;48.204;16.202;2023-03-01T11:25:11;26.08;;;14.77;;
62990;SDS011;49084;48.204;16.202;2023-03-01T11:27:43;24.73;;;13.93;;
62990;SDS011;49084;48.204;16.202;2023-03-01T11:33:08;29.35;;;14.05;;
62990;SDS011;49084;48.204;16.202;2023-03-01T11:35:42;25.42;;;14.68;;
62990;SDS011;49084;48.204;16.202;2023-03-01T11:38:28;28.60;;;15.73;;
62990;SDS011;49084;48.204;16.202;2023-03-01T11:40:59;24.13;;;14.68;;
62990;SDS011;49084;48.204;16.202;2023-03-01T11:46:21;25.90;;;15.38;;
62990;SDS011;49084;48.204;16.202;2023-03-01T11:59:44;25.35;;;14.27;;
62990;SDS011;49084;48.204;16.202;2023-03-01T12:02:21;22.45;;;13.43;;
62990;SDS011;49084;48.204;16.202;2023-03-01T12:08:14;18.80;;;12.82;;
62990;SDS011;49084;48.204;16.202;2023-03-01T12:10:52;30.73;;;14.20;;
62990;SDS011;49084;48.204;16.202;2023-03-01T12:28:04;31.08;;;13.65;;
62990;SDS011;49084;48.204;16.202;2023-03-01T12:50:41;23.58;;;14.05;;
62990;SDS011;49084;48.204;16.202;2023-03-01T12:53:16;25.50;;;13.27;;
62990;SDS011;49084;48.204;16.202;2023-03-01T12:55:48;21.95;;;13.52;;
62990;SDS011;49084;48.204;16.202;2023-03-01T12:58:24;23.95;;;14.18;;
62990;SDS011;49084;48.204;16.202;2023-03-01T13:07:01;22.58;;;13.32;;
62990;SDS011;49084;48.204;16.202;2023-03-01T13:30:59;22.15;;;14.07;;
62990;SDS011;49084;48.204;16.202;2023-03-01T13:36:01;19.42;;;12.90;;
62990;SDS011;49084;48.204;16.202;2023-03-01T13:38:37;25.77;;;15.00;;
62990;SDS011;49084;48.204;16.202;2023-03-01T13:41:03;22.73;;;15.15;;
62990;SDS011;49084;48.204;16.202;2023-03-01T13:43:40;19.88;;;14.13;;
62990;SDS011;49084;48.204;16.202;2023-03-01T13:46:09;21.38;;;13.18;;
62990;SDS011;49084;48.204;16.202;2023-03-01T13:48:38;20.63;;;13.65;;
62990;SDS011;49084;48.204;16.202;2023-03-01T13:51:08;18.75;;;13.20;;
62990;SDS011;49084;48.204;16.202;2023-03-01T13:53:43;20.10;;;13.60;;
62990;SDS011;49084;48.204;16.202;2023-03-01T13:56:33;26.17;;;14.15;;
62990;SDS011;49084;48.204;16.202;2023-03-01T13:59:03;23.77;;;13.80;;
62990;SDS011;49084;48.204;16.202;2023-03-01T14:01:37;20.48;;;12.95;;
62990;SDS011;49084;48.204;16.202;2023-03-01T14:04:14;27.52;;;14.38;;
62990;SDS011;49084;48.204;16.202;2023-03-01T14:09:42;20.08;;;12.77;;
62990;SDS011;49084;48.204;16.202;2023-03-01T14:14:40;24.08;;;14.25;;
62990;SDS011;49084;48.204;16.202;2023-03-01T14:19:57;26.42;;;14.27;;
62990;SDS011;49084;48.204;16.202;2023-03-01T14:22:30;23.95;;;14.02;;
62990;SDS011;49084;48.204;16.202;2023-03-01T14:24:59;24.27;;;15.60;;
62990;SDS011;49084;48.204;16.202;2023-03-01T14:27:38;27.45;;;15.95;;
62990;SDS011;49084;48.204;16.202;2023-03-01T14:30:13;24.02;;;14.55;;
62990;SDS011;49084;48.204;16.202;2023-03-01T14:33:21;22.13;;;13.27;;
62990;SDS011;49084;48.204;16.202;2023-03-01T14:36:07;16.20;;;10.15;;
62990;SDS011;49084;48.204;16.202;2023-03-01T14:38:37;23.07;;;14.00;;
62990;SDS011;49084;48.204;16.202;2023-03-01T14:41:23;23.02;;;13.43;;
62990;SDS011;49084;48.204;16.202;2023-03-01T14:43:55;23.77;;;14.63;;
62990;SDS011;49084;48.204;16.202;2023-03-01T14:46:33;26.58;;;14.98;;
62990;SDS011;49084;48.204;16.202;2023-03-01T14:49:11;26.33;;;14.35;;
62990;SDS011;49084;48.204;16.202;2023-03-01T14:51:43;23.35;;;14.88;;
62990;SDS011;49084;48.204;16.202;2023-03-01T14:54:22;24.88;;;15.77;;
62990;SDS011;49084;48.204;16.202;2023-03-01T14:56:49;22.73;;;14.23;;
62990;SDS011;49084;48.204;16.202;2023-03-01T14:59:19;24.08;;;14.20;;
62990;SDS011;49084;48.204;16.202;2023-03-01T15:01:49;22.52;;;14.38;;
62990;SDS011;49084;48.204;16.202;2023-03-01T15:04:17;24.67;;;14.93;;
62990;SDS011;49084;48.204;16.202;2023-03-01T15:06:44;23.20;;;14.43;;
62990;SDS011;49084;48.204;16.202;2023-03-01T15:09:12;22.52;;;14.10;;
62990;SDS011;49084;48.204;16.202;2023-03-01T15:11:41;24.42;;;14.75;;
62990;SDS011;49084;48.204;16.202;2023-03-01T15:19:59;25.42;;;15.10;;
62990;SDS011;49084;48.204;16.202;2023-03-01T15:22:27;24.35;;;15.13;;
62990;SDS011;49084;48.204;16.202;2023-03-01T15:24:53;29.73;;;15.35;;
62990;SDS011;49084;48.204;16.202;2023-03-01T15:27:21;24.55;;;14.82;;
62990;SDS011;49084;48.204;16.202;2023-03-01T15:29:58;27.42;;;15.73;;
62990;SDS011;49084;48.204;16.202;2023-03-01T15:32:31;29.55;;;15.35;;
62990;SDS011;49084;48.204;16.202;2023-03-01T15:34:58;27.00;;;15.18;;
62990;SDS011;49084;48.204;16.202;2023-03-01T15:37:39;27.90;;;15.82;;
62990;SDS011;49084;48.204;16.202;2023-03-01T15:42:48;28.67;;;16.10;;
62990;SDS011;49084;48.204;16.202;2023-03-01T15:47:49;28.10;;;15.18;;
62990;SDS011;49084;48.204;16.202;2023-03-01T15:52:48;28.88;;;15.27;;
62990;SDS011;49084;48.204;16.202;2023-03-01T15:55:16;30.33;;;16.55;;
62990;SDS011;49084;48.204;16.202;2023-03-01T15:57:47;26.58;;;16.48;;
62990;SDS011;49084;48.204;16.202;2023-03-01T16:00:14;28.75;;;15.77;;
62990;SDS011;49084;48.204;16.202;2023-03-01T16:02:42;29.90;;;16.55;;
62990;SDS011;49084;48.204;16.202;2023-03-01T16:05:16;28.08;;;16.50;;
62990;SDS011;49084;48.204;16.202;2023-03-01T16:07:48;29.33;;;15.93;;
62990;SDS011;49084;48.204;16.202;2023-03-01T16:10:15;33.88;;;16.42;;
62990;SDS011;49084;48.204;16.202;2023-03-01T16:12:41;29.33;;;16.25;;
62990;SDS011;49084;48.204;16.202;2023-03-01T16:15:23;26.83;;;15.82;;
62990;SDS011;49084;48.204;16.202;2023-03-01T16:17:51;29.70;;;16.27;;
62990;SDS011;49084;48.204;16.202;2023-03-01T16:20:17;27.85;;;16.63;;
62990;SDS011;49084;48.204;16.202;2023-03-01T16:22:43;31.13;;;16.98;;
62990;SDS011;49084;48.204;16.202;2023-03-01T16:25:10;33.83;;;18.17;;
62990;SDS011;49084;48.204;16.202;2023-03-01T16:27:37;31.92;;;16.65;;
62990;SDS011;49084;48.204;16.202;2023-03-01T16:30:04;28.40;;;16.38;;
62990;SDS011;49084;48.204;16.202;2023-03-01T16:32:31;30.40;;;16.83;;
62990;SDS011;49084;48.204;16.202;2023-03-01T16:34:57;36.28;;;17.83;;
62990;SDS011;49084;48.204;16.202;2023-03-01T16:37:22;29.90;;;16.05;;
62990;SDS011;49084;48.204;16.202;2023-03-01T16:39:48;30.88;;;16.63;;
62990;SDS011;49084;48.204;16.202;2023-03-01T16:42:17;29.45;;;16.20;;
62990;SDS011;49084;48.204;16.202;2023-03-01T16:44:43;29.10;;;16.48;;
62990;SDS011;49084;48.204;16.202;2023-03-01T16:47:08;29.10;;;16.67;;
62990;SDS011;49084;48.204;16.202;2023-03-01T16:49:34;29.20;;;16.02;;
62990;SDS011;49084;48.204;16.202;2023-03-01T16:52:00;33.60;;;17.02;;
62990;SDS011;49084;48.204;16.202;2023-03-01T16:54:26;27.13;;;16.63;;
62990;SDS011;49084;48.204;16.202;2023-03-01T16:56:52;32.97;;;16.67;;
62990;SDS011;49084;48.204;16.202;2023-03-01T16:59:17;37.40;;;17.27;;
62990;SDS011;49084;48.204;16.202;2023-03-01T17:01:44;31.17;;;16.50;;
62990;SDS011;49084;48.204;16.202;2023-03-01T17:04:11;38.47;;;18.15;;
62990;SDS011;49084;48.204;16.202;2023-03-01T17:06:37;32.35;;;16.73;;
62990;SDS011;49084;48.204;16.202;2023-03-01T17:09:03;32.25;;;16.52;;
62990;SDS011;49084;48.204;16.202;2023-03-01T17:11:29;27.05;;;15.73;;
62990;SDS011;49084;48.204;16.202;2023-03-01T17:13:55;26.15;;;15.73;;
62990;SDS011;49084;48.204;16.202;2023-03-01T17:16:21;28.10;;;15.10;;
62990;SDS011;49084;48.204;16.202;2023-03-01T17:18:47;32.38;;;15.90;;